EJU66B LPMA-LXGB
Flight info
| Callsign | EJU66B |
|---|---|
| Flight time | 1h 23m |
| Altitude | 36000 |
| Route | DEGUN DCT NARTA/N0432F370 DCT ORTOP/N0431F360 T100 SOVIS |
| Aircraft | A320/M-SDE3FGHIRWY/LB1 |
Departure
| Time | 2026-05-01 08:30 |
|---|---|
| Airport | Cristiano Ronaldo International Airport (LPMA) |
Arrival
| Time | 2026-05-01 09:53 |
|---|---|
| Airport | Gibraltar Airport (LXGB) |
| Time | Latitude | Longitude | Altitude | Speed | Heading |
|---|---|---|---|---|---|
| 2026-05-01 08:12 | 32.69466 | -16.77507 | 176 ft | 0 kts | 137° |
| 2026-05-01 08:23 | 32.69472 | -16.77514 | 176 ft | 4 kts | 138° |
| 2026-05-01 08:23 | 32.69493 | -16.77534 | 176 ft | 4 kts | 147° |
| 2026-05-01 08:23 | 32.69517 | -16.77548 | 176 ft | 4 kts | 168° |
| 2026-05-01 08:23 | 32.69540 | -16.77547 | 176 ft | 3 kts | 223° |
| 2026-05-01 08:24 | 32.69545 | -16.77541 | 176 ft | 0 kts | 226° |
| 2026-05-01 08:26 | 32.69529 | -16.77560 | 176 ft | 6 kts | 225° |
| 2026-05-01 08:26 | 32.69476 | -16.77624 | 176 ft | 12 kts | 226° |
| 2026-05-01 08:26 | 32.69422 | -16.77691 | 176 ft | 11 kts | 226° |
| 2026-05-01 08:26 | 32.69363 | -16.77763 | 176 ft | 13 kts | 226° |
| 2026-05-01 08:27 | 32.69301 | -16.77840 | 176 ft | 12 kts | 229° |
| 2026-05-01 08:27 | 32.69285 | -16.77931 | 176 ft | 11 kts | 268° |
| 2026-05-01 08:27 | 32.69281 | -16.78017 | 176 ft | 10 kts | 262° |
| 2026-05-01 08:27 | 32.69223 | -16.78106 | 176 ft | 19 kts | 222° |
| 2026-05-01 08:28 | 32.69130 | -16.78215 | 176 ft | 18 kts | 226° |
| 2026-05-01 08:28 | 32.69047 | -16.78318 | 176 ft | 17 kts | 224° |
| 2026-05-01 08:28 | 32.68974 | -16.78388 | 176 ft | 10 kts | 205° |
| 2026-05-01 08:28 | 32.68911 | -16.78408 | 176 ft | 9 kts | 193° |
| 2026-05-01 08:29 | 32.68886 | -16.78454 | 176 ft | 7 kts | 289° |
| 2026-05-01 08:29 | 32.68918 | -16.78463 | 176 ft | 5 kts | 36° |
| 2026-05-01 08:29 | 32.68927 | -16.78453 | 176 ft | 0 kts | 44° |
| 2026-05-01 08:29 | 32.69001 | -16.78368 | 176 ft | 48 kts | 44° |
| 2026-05-01 08:30 | 32.69421 | -16.77875 | 176 ft | 118 kts | 44° |
| 2026-05-01 08:30 | 32.70115 | -16.77047 | 358 ft | 156 kts | 45° |
| 2026-05-01 08:30 | 32.70894 | -16.76062 | 940 ft | 170 kts | 51° |
| 2026-05-01 08:30 | 32.71275 | -16.74669 | 1334 ft | 194 kts | 99° |
| 2026-05-01 08:31 | 32.70828 | -16.73070 | 1742 ft | 217 kts | 110° |
| 2026-05-01 08:31 | 32.70751 | -16.71202 | 2211 ft | 244 kts | 72° |
| 2026-05-01 08:31 | 32.71628 | -16.69389 | 2768 ft | 266 kts | 47° |
| 2026-05-01 08:31 | 32.72936 | -16.67805 | 3595 ft | 276 kts | 43° |
| 2026-05-01 08:32 | 32.74322 | -16.66171 | 4520 ft | 284 kts | 43° |
| 2026-05-01 08:32 | 32.75750 | -16.64499 | 5429 ft | 292 kts | 44° |
| 2026-05-01 08:32 | 32.77210 | -16.62791 | 6418 ft | 296 kts | 44° |
| 2026-05-01 08:32 | 32.78689 | -16.61062 | 7332 ft | 301 kts | 44° |
| 2026-05-01 08:33 | 32.80189 | -16.59307 | 8253 ft | 305 kts | 43° |
| 2026-05-01 08:33 | 32.81711 | -16.57527 | 9170 ft | 309 kts | 43° |
| 2026-05-01 08:33 | 32.83256 | -16.55717 | 10087 ft | 314 kts | 43° |
| 2026-05-01 08:33 | 32.84856 | -16.53848 | 10565 ft | 334 kts | 43° |
| 2026-05-01 08:34 | 32.86573 | -16.51849 | 10899 ft | 356 kts | 42° |
| 2026-05-01 08:34 | 32.88350 | -16.49774 | 11525 ft | 366 kts | 42° |
| 2026-05-01 08:34 | 32.90035 | -16.47458 | 12244 ft | 376 kts | 56° |
| 2026-05-01 08:34 | 32.91173 | -16.44630 | 12960 ft | 383 kts | 67° |
| 2026-05-01 08:35 | 32.92187 | -16.41673 | 13699 ft | 389 kts | 67° |
| 2026-05-01 08:35 | 32.93201 | -16.38658 | 14358 ft | 395 kts | 67° |
| 2026-05-01 08:35 | 32.94224 | -16.35607 | 15005 ft | 400 kts | 68° |
| 2026-05-01 08:35 | 32.95266 | -16.32502 | 15684 ft | 404 kts | 68° |
| 2026-05-01 08:36 | 32.96314 | -16.29386 | 16366 ft | 408 kts | 68° |
| 2026-05-01 08:36 | 32.97381 | -16.26230 | 17041 ft | 412 kts | 68° |
| 2026-05-01 08:36 | 32.98460 | -16.23048 | 17692 ft | 417 kts | 68° |
| 2026-05-01 08:36 | 32.99541 | -16.19866 | 18335 ft | 421 kts | 68° |
| 2026-05-01 08:37 | 33.00643 | -16.16620 | 18895 ft | 425 kts | 68° |
| 2026-05-01 08:37 | 33.01754 | -16.13338 | 19458 ft | 429 kts | 68° |
| 2026-05-01 08:37 | 33.02873 | -16.10017 | 20022 ft | 433 kts | 68° |
| 2026-05-01 08:37 | 33.03994 | -16.06680 | 20574 ft | 436 kts | 68° |
| 2026-05-01 08:38 | 33.05131 | -16.03299 | 21114 ft | 440 kts | 68° |
| 2026-05-01 08:38 | 33.06274 | -15.99903 | 21643 ft | 443 kts | 68° |
| 2026-05-01 08:38 | 33.07427 | -15.96470 | 22169 ft | 447 kts | 68° |
| 2026-05-01 08:38 | 33.08585 | -15.93014 | 22691 ft | 451 kts | 68° |
| 2026-05-01 08:39 | 33.09751 | -15.89527 | 23204 ft | 455 kts | 68° |
| 2026-05-01 08:39 | 33.10928 | -15.86003 | 23702 ft | 458 kts | 68° |
| 2026-05-01 08:39 | 33.12111 | -15.82461 | 24120 ft | 462 kts | 68° |
| 2026-05-01 08:39 | 33.13288 | -15.78937 | 24528 ft | 465 kts | 68° |
| 2026-05-01 08:40 | 33.15693 | -15.71721 | 25331 ft | 471 kts | 68° |
| 2026-05-01 08:40 | 33.16908 | -15.68070 | 25726 ft | 474 kts | 68° |
| 2026-05-01 08:40 | 33.18129 | -15.64387 | 26113 ft | 478 kts | 68° |
| 2026-05-01 08:41 | 33.19353 | -15.60693 | 26500 ft | 481 kts | 68° |
| 2026-05-01 08:41 | 33.20590 | -15.56960 | 26878 ft | 484 kts | 68° |
| 2026-05-01 08:41 | 33.21831 | -15.53216 | 27258 ft | 487 kts | 67° |
| 2026-05-01 08:41 | 33.23080 | -15.49444 | 27634 ft | 490 kts | 67° |
| 2026-05-01 08:42 | 33.24320 | -15.45700 | 28020 ft | 493 kts | 68° |
| 2026-05-01 08:42 | 33.25581 | -15.41881 | 28386 ft | 496 kts | 68° |
| 2026-05-01 08:42 | 33.26850 | -15.38029 | 28750 ft | 499 kts | 68° |
| 2026-05-01 08:42 | 33.28124 | -15.34161 | 29112 ft | 502 kts | 68° |
| 2026-05-01 08:43 | 33.29405 | -15.30268 | 29463 ft | 505 kts | 68° |
| 2026-05-01 08:43 | 33.30688 | -15.26354 | 29801 ft | 508 kts | 68° |
| 2026-05-01 08:43 | 33.31979 | -15.22414 | 30127 ft | 510 kts | 68° |
| 2026-05-01 08:43 | 33.33277 | -15.18447 | 30417 ft | 513 kts | 68° |
| 2026-05-01 08:44 | 33.34578 | -15.14466 | 30697 ft | 515 kts | 68° |
| 2026-05-01 08:44 | 33.35884 | -15.10465 | 30981 ft | 517 kts | 68° |
| 2026-05-01 08:44 | 33.37177 | -15.06503 | 31261 ft | 519 kts | 68° |
| 2026-05-01 08:44 | 33.38489 | -15.02472 | 31539 ft | 521 kts | 68° |
| 2026-05-01 08:45 | 33.39802 | -14.98436 | 31899 ft | 520 kts | 68° |
| 2026-05-01 08:45 | 33.41113 | -14.94401 | 32302 ft | 519 kts | 68° |
| 2026-05-01 08:45 | 33.42418 | -14.90381 | 32698 ft | 518 kts | 68° |
| 2026-05-01 08:45 | 33.43720 | -14.86366 | 33102 ft | 517 kts | 68° |
| 2026-05-01 08:46 | 33.45015 | -14.82359 | 33500 ft | 516 kts | 68° |
| 2026-05-01 08:46 | 33.46308 | -14.78355 | 33891 ft | 515 kts | 68° |
| 2026-05-01 08:46 | 33.47601 | -14.74359 | 34265 ft | 514 kts | 68° |
| 2026-05-01 08:46 | 33.48891 | -14.70365 | 34582 ft | 513 kts | 68° |
| 2026-05-01 08:47 | 33.50180 | -14.66373 | 34917 ft | 513 kts | 68° |
| 2026-05-01 08:47 | 33.51467 | -14.62381 | 35232 ft | 513 kts | 68° |
| 2026-05-01 08:47 | 33.52747 | -14.58394 | 35534 ft | 512 kts | 68° |
| 2026-05-01 08:47 | 33.54023 | -14.54413 | 35836 ft | 511 kts | 68° |
| 2026-05-01 08:48 | 33.55296 | -14.50429 | 36080 ft | 513 kts | 68° |
| 2026-05-01 08:48 | 33.56573 | -14.46425 | 36168 ft | 517 kts | 68° |
| 2026-05-01 08:48 | 33.59170 | -14.38283 | 36173 ft | 527 kts | 68° |
| 2026-05-01 08:49 | 33.61784 | -14.30105 | 36177 ft | 528 kts | 68° |
| 2026-05-01 08:49 | 33.64398 | -14.21847 | 36177 ft | 528 kts | 69° |
| 2026-05-01 08:50 | 33.67003 | -14.13603 | 36176 ft | 528 kts | 68° |
| 2026-05-01 08:50 | 33.69621 | -14.05352 | 36184 ft | 528 kts | 68° |
| 2026-05-01 08:51 | 33.72208 | -13.97140 | 36187 ft | 529 kts | 69° |
| 2026-05-01 08:51 | 33.74798 | -13.88868 | 36190 ft | 529 kts | 69° |
| 2026-05-01 08:52 | 33.77393 | -13.80571 | 36199 ft | 529 kts | 69° |
| 2026-05-01 08:52 | 33.79988 | -13.72284 | 36200 ft | 529 kts | 69° |
| 2026-05-01 08:53 | 33.82557 | -13.64035 | 36201 ft | 530 kts | 69° |
| 2026-05-01 08:53 | 33.85142 | -13.55737 | 36204 ft | 530 kts | 69° |
| 2026-05-01 08:54 | 33.87713 | -13.47469 | 36204 ft | 530 kts | 69° |
| 2026-05-01 08:54 | 33.90277 | -13.39150 | 36207 ft | 529 kts | 69° |
| 2026-05-01 08:55 | 33.92840 | -13.30831 | 36208 ft | 529 kts | 69° |
| 2026-05-01 08:55 | 33.95403 | -13.22520 | 36207 ft | 529 kts | 69° |
| 2026-05-01 08:56 | 33.97955 | -13.14199 | 36203 ft | 529 kts | 69° |
| 2026-05-01 08:56 | 34.00064 | -13.07286 | 36206 ft | 528 kts | 69° |
| 2026-05-01 08:57 | 34.02585 | -12.98975 | 36219 ft | 527 kts | 69° |
| 2026-05-01 08:57 | 34.05522 | -12.89324 | 36243 ft | 527 kts | 69° |
| 2026-05-01 08:58 | 34.08040 | -12.81013 | 36213 ft | 527 kts | 69° |
| 2026-05-01 08:58 | 34.10147 | -12.74047 | 36207 ft | 527 kts | 69° |
| 2026-05-01 08:59 | 34.12641 | -12.65781 | 36209 ft | 527 kts | 69° |
| 2026-05-01 08:59 | 34.15148 | -12.57453 | 36214 ft | 527 kts | 69° |
| 2026-05-01 09:00 | 34.17644 | -12.49130 | 36215 ft | 527 kts | 69° |
| 2026-05-01 09:00 | 34.20130 | -12.40790 | 36219 ft | 527 kts | 69° |
| 2026-05-01 09:01 | 34.22615 | -12.32454 | 36215 ft | 527 kts | 69° |
| 2026-05-01 09:01 | 34.25080 | -12.24170 | 36215 ft | 527 kts | 69° |
| 2026-05-01 09:02 | 34.27551 | -12.15827 | 36214 ft | 527 kts | 69° |
| 2026-05-01 09:02 | 34.30019 | -12.07481 | 36214 ft | 527 kts | 69° |
| 2026-05-01 09:03 | 34.32480 | -11.99130 | 36217 ft | 527 kts | 69° |
| 2026-05-01 09:03 | 34.34939 | -11.90779 | 36216 ft | 527 kts | 69° |
| 2026-05-01 09:04 | 34.37386 | -11.82416 | 36215 ft | 527 kts | 69° |
| 2026-05-01 09:04 | 34.39830 | -11.74025 | 36211 ft | 527 kts | 69° |
| 2026-05-01 09:05 | 34.42261 | -11.65694 | 36213 ft | 527 kts | 69° |
| 2026-05-01 09:05 | 34.44704 | -11.57309 | 36228 ft | 528 kts | 69° |
| 2026-05-01 09:06 | 34.47133 | -11.48913 | 36211 ft | 528 kts | 70° |
| 2026-05-01 09:06 | 34.49555 | -11.40509 | 36209 ft | 528 kts | 70° |
| 2026-05-01 09:07 | 34.51972 | -11.32099 | 36212 ft | 528 kts | 70° |
| 2026-05-01 09:07 | 34.54382 | -11.23683 | 36212 ft | 528 kts | 69° |
| 2026-05-01 09:08 | 34.56791 | -11.15268 | 36218 ft | 528 kts | 69° |
| 2026-05-01 09:08 | 34.59179 | -11.06899 | 36216 ft | 528 kts | 70° |
| 2026-05-01 09:09 | 34.61575 | -10.98478 | 36215 ft | 528 kts | 70° |
| 2026-05-01 09:09 | 34.63965 | -10.90045 | 36212 ft | 528 kts | 69° |
| 2026-05-01 09:10 | 34.66355 | -10.81592 | 36208 ft | 528 kts | 69° |
| 2026-05-01 09:10 | 34.68743 | -10.73156 | 36204 ft | 528 kts | 69° |
| 2026-05-01 09:11 | 34.71116 | -10.64703 | 36218 ft | 528 kts | 70° |
| 2026-05-01 09:11 | 34.73471 | -10.56290 | 36210 ft | 528 kts | 69° |
| 2026-05-01 09:12 | 34.75841 | -10.47828 | 36209 ft | 528 kts | 70° |
| 2026-05-01 09:12 | 34.78203 | -10.39357 | 36206 ft | 528 kts | 70° |
| 2026-05-01 09:13 | 34.80556 | -10.30874 | 36207 ft | 528 kts | 70° |
| 2026-05-01 09:13 | 34.82881 | -10.22444 | 36217 ft | 529 kts | 70° |
| 2026-05-01 09:14 | 34.85225 | -10.13951 | 36203 ft | 529 kts | 70° |
| 2026-05-01 09:14 | 34.87574 | -10.05438 | 36204 ft | 529 kts | 70° |
| 2026-05-01 09:15 | 34.89912 | -9.96938 | 36202 ft | 530 kts | 70° |
| 2026-05-01 09:15 | 34.92229 | -9.88463 | 36204 ft | 530 kts | 70° |
| 2026-05-01 09:16 | 34.94544 | -9.79941 | 36204 ft | 530 kts | 70° |
| 2026-05-01 09:17 | 34.98024 | -9.67130 | 36193 ft | 530 kts | 70° |
| 2026-05-01 09:17 | 35.01490 | -9.54315 | 36195 ft | 530 kts | 70° |
| 2026-05-01 09:18 | 35.04941 | -9.41469 | 36199 ft | 531 kts | 70° |
| 2026-05-01 09:19 | 35.08367 | -9.28665 | 36197 ft | 531 kts | 70° |
| 2026-05-01 09:20 | 35.11792 | -9.15794 | 36199 ft | 531 kts | 70° |
| 2026-05-01 09:21 | 35.16351 | -8.98606 | 36198 ft | 532 kts | 70° |
| 2026-05-01 09:21 | 35.19754 | -8.85667 | 36207 ft | 533 kts | 70° |
| 2026-05-01 09:22 | 35.22007 | -8.77076 | 36202 ft | 520 kts | 70° |
| 2026-05-01 09:22 | 35.24118 | -8.68974 | 36202 ft | 487 kts | 70° |
| 2026-05-01 09:23 | 35.25130 | -8.65090 | 36204 ft | 472 kts | 70° |
| 2026-05-01 09:23 | 35.27062 | -8.57673 | 36201 ft | 442 kts | 69° |
| 2026-05-01 09:24 | 35.28864 | -8.50728 | 36201 ft | 413 kts | 69° |
| 2026-05-01 09:24 | 35.29716 | -8.47430 | 36199 ft | 399 kts | 69° |
| 2026-05-01 09:24 | 35.31312 | -8.41171 | 36127 ft | 373 kts | 71° |
| 2026-05-01 09:25 | 35.32403 | -8.34951 | 35028 ft | 386 kts | 84° |
| 2026-05-01 09:25 | 35.32063 | -8.28425 | 34316 ft | 378 kts | 110° |
| 2026-05-01 09:26 | 35.31118 | -8.25468 | 33980 ft | 372 kts | 112° |
| 2026-05-01 09:26 | 35.31363 | -8.19006 | 33630 ft | 400 kts | 68° |
| 2026-05-01 09:26 | 35.32178 | -8.15744 | 33899 ft | 405 kts | 70° |
| 2026-05-01 09:27 | 35.34083 | -8.09046 | 33326 ft | 427 kts | 50° |
| 2026-05-01 09:27 | 35.35846 | -8.06052 | 33163 ft | 441 kts | 47° |
| 2026-05-01 09:27 | 35.37695 | -8.02996 | 33208 ft | 452 kts | 47° |
| 2026-05-01 09:28 | 35.39571 | -7.99913 | 33202 ft | 463 kts | 47° |
| 2026-05-01 09:28 | 35.41528 | -7.96715 | 33205 ft | 474 kts | 47° |
| 2026-05-01 09:28 | 35.43370 | -7.93278 | 33201 ft | 492 kts | 59° |
| 2026-05-01 09:28 | 35.44624 | -7.89309 | 33210 ft | 507 kts | 70° |
| 2026-05-01 09:29 | 35.46760 | -7.80900 | 33204 ft | 525 kts | 70° |
| 2026-05-01 09:30 | 35.50030 | -7.67812 | 33199 ft | 539 kts | 70° |
| 2026-05-01 09:30 | 35.53335 | -7.54602 | 33058 ft | 540 kts | 70° |
| 2026-05-01 09:31 | 35.54435 | -7.50217 | 32582 ft | 535 kts | 70° |
| 2026-05-01 09:31 | 35.55519 | -7.45874 | 32123 ft | 529 kts | 70° |
| 2026-05-01 09:31 | 35.57648 | -7.37305 | 31225 ft | 519 kts | 70° |
| 2026-05-01 09:32 | 35.58679 | -7.33137 | 30790 ft | 515 kts | 70° |
| 2026-05-01 09:32 | 35.60741 | -7.24779 | 29878 ft | 505 kts | 70° |
| 2026-05-01 09:32 | 35.61758 | -7.20675 | 29404 ft | 500 kts | 70° |
| 2026-05-01 09:33 | 35.62767 | -7.16606 | 28959 ft | 495 kts | 70° |
| 2026-05-01 09:33 | 35.63763 | -7.12575 | 28523 ft | 490 kts | 70° |
| 2026-05-01 09:33 | 35.65710 | -7.04609 | 27690 ft | 483 kts | 71° |
| 2026-05-01 09:34 | 35.66656 | -7.00716 | 27291 ft | 479 kts | 71° |
| 2026-05-01 09:34 | 35.67607 | -6.96802 | 26880 ft | 476 kts | 71° |
| 2026-05-01 09:34 | 35.69497 | -6.89059 | 26085 ft | 469 kts | 71° |
| 2026-05-01 09:35 | 35.70432 | -6.85225 | 25695 ft | 466 kts | 71° |
| 2026-05-01 09:35 | 35.72283 | -6.77640 | 24935 ft | 460 kts | 71° |
| 2026-05-01 09:35 | 35.73199 | -6.73876 | 24566 ft | 457 kts | 71° |
| 2026-05-01 09:36 | 35.74102 | -6.70138 | 24190 ft | 454 kts | 72° |
| 2026-05-01 09:36 | 35.74998 | -6.66417 | 23820 ft | 451 kts | 72° |
| 2026-05-01 09:36 | 35.75886 | -6.62727 | 23392 ft | 448 kts | 72° |
| 2026-05-01 09:36 | 35.76770 | -6.59055 | 22964 ft | 445 kts | 72° |
| 2026-05-01 09:37 | 35.77645 | -6.55416 | 22532 ft | 441 kts | 72° |
| 2026-05-01 09:37 | 35.79366 | -6.48220 | 21696 ft | 434 kts | 72° |
| 2026-05-01 09:37 | 35.80204 | -6.44711 | 21294 ft | 430 kts | 72° |
| 2026-05-01 09:38 | 35.81879 | -6.37686 | 20501 ft | 423 kts | 72° |
| 2026-05-01 09:38 | 35.82703 | -6.34229 | 20067 ft | 420 kts | 73° |
| 2026-05-01 09:38 | 35.83523 | -6.30787 | 19611 ft | 416 kts | 73° |
| 2026-05-01 09:39 | 35.85139 | -6.24003 | 18718 ft | 408 kts | 73° |
| 2026-05-01 09:39 | 35.85935 | -6.20660 | 18254 ft | 405 kts | 73° |
| 2026-05-01 09:39 | 35.86712 | -6.17384 | 17794 ft | 401 kts | 73° |
| 2026-05-01 09:40 | 35.87490 | -6.14095 | 17320 ft | 398 kts | 73° |
| 2026-05-01 09:40 | 35.89020 | -6.07598 | 16404 ft | 391 kts | 73° |
| 2026-05-01 09:40 | 35.89772 | -6.04398 | 15958 ft | 387 kts | 73° |
| 2026-05-01 09:41 | 35.90519 | -6.01222 | 15529 ft | 384 kts | 74° |
| 2026-05-01 09:41 | 35.91991 | -5.94936 | 14625 ft | 378 kts | 74° |
| 2026-05-01 09:41 | 35.92716 | -5.91827 | 14150 ft | 375 kts | 74° |
| 2026-05-01 09:42 | 35.93433 | -5.88753 | 13645 ft | 370 kts | 74° |
| 2026-05-01 09:42 | 35.94132 | -5.85748 | 13127 ft | 361 kts | 75° |
| 2026-05-01 09:42 | 35.95492 | -5.79914 | 12120 ft | 354 kts | 75° |
| 2026-05-01 09:43 | 35.97208 | -5.74266 | 11136 ft | 349 kts | 68° |
| 2026-05-01 09:43 | 35.98101 | -5.71547 | 10655 ft | 334 kts | 69° |
| 2026-05-01 09:43 | 35.98941 | -5.68926 | 10176 ft | 321 kts | 69° |
| 2026-05-01 09:44 | 36.00521 | -5.63995 | 9260 ft | 295 kts | 69° |
| 2026-05-01 09:44 | 36.00870 | -5.62916 | 9071 ft | 289 kts | 69° |
| 2026-05-01 09:45 | 36.01298 | -5.61595 | 8845 ft | 282 kts | 69° |
| 2026-05-01 09:45 | 36.02709 | -5.57273 | 8098 ft | 263 kts | 69° |
| 2026-05-01 09:45 | 36.03388 | -5.55214 | 7734 ft | 255 kts | 69° |
| 2026-05-01 09:46 | 36.04052 | -5.53209 | 7380 ft | 251 kts | 69° |
| 2026-05-01 09:46 | 36.04716 | -5.51207 | 7022 ft | 253 kts | 69° |
| 2026-05-01 09:46 | 36.05391 | -5.49184 | 6664 ft | 255 kts | 69° |
| 2026-05-01 09:46 | 36.06055 | -5.47170 | 6283 ft | 249 kts | 71° |
| 2026-05-01 09:47 | 36.06588 | -5.45173 | 5909 ft | 241 kts | 75° |
| 2026-05-01 09:47 | 36.07070 | -5.43207 | 5542 ft | 239 kts | 75° |
| 2026-05-01 09:47 | 36.07542 | -5.41258 | 5171 ft | 233 kts | 75° |
| 2026-05-01 09:47 | 36.08004 | -5.39379 | 4804 ft | 228 kts | 75° |
| 2026-05-01 09:48 | 36.08464 | -5.37518 | 4420 ft | 224 kts | 75° |
| 2026-05-01 09:48 | 36.08889 | -5.35801 | 4062 ft | 221 kts | 75° |
| 2026-05-01 09:48 | 36.09294 | -5.34165 | 3725 ft | 218 kts | 75° |
| 2026-05-01 09:48 | 36.09734 | -5.32375 | 3355 ft | 215 kts | 75° |
| 2026-05-01 09:49 | 36.10012 | -5.31210 | 3171 ft | 210 kts | 75° |
| 2026-05-01 09:49 | 36.10404 | -5.29552 | 3071 ft | 190 kts | 75° |
| 2026-05-01 09:49 | 36.10760 | -5.28049 | 2933 ft | 174 kts | 75° |
| 2026-05-01 09:49 | 36.11198 | -5.26207 | 2612 ft | 166 kts | 75° |
| 2026-05-01 09:50 | 36.11418 | -5.25278 | 2403 ft | 166 kts | 76° |
| 2026-05-01 09:50 | 36.12238 | -5.23797 | 2178 ft | 157 kts | 26° |
| 2026-05-01 09:50 | 36.12932 | -5.23656 | 2126 ft | 148 kts | 351° |
| 2026-05-01 09:50 | 36.13818 | -5.24218 | 2037 ft | 142 kts | 321° |
| 2026-05-01 09:51 | 36.14576 | -5.24972 | 1882 ft | 138 kts | 316° |
| 2026-05-01 09:51 | 36.15177 | -5.25869 | 1713 ft | 135 kts | 293° |
| 2026-05-01 09:51 | 36.15351 | -5.26995 | 1440 ft | 135 kts | 272° |
| 2026-05-01 09:51 | 36.15386 | -5.28147 | 1055 ft | 137 kts | 265° |
| 2026-05-01 09:52 | 36.15311 | -5.29301 | 800 ft | 131 kts | 265° |
| 2026-05-01 09:52 | 36.15285 | -5.30414 | 608 ft | 128 kts | 266° |
| 2026-05-01 09:52 | 36.15239 | -5.31516 | 447 ft | 129 kts | 264° |
| 2026-05-01 09:52 | 36.15205 | -5.32634 | 296 ft | 131 kts | 268° |
| 2026-05-01 09:53 | 36.15164 | -5.33759 | 100 ft | 131 kts | 265° |
| 2026-05-01 09:53 | 36.15121 | -5.34836 | 23 ft | 112 kts | 263° |
| 2026-05-01 09:53 | 36.15093 | -5.35435 | 23 ft | 26 kts | 269° |
| 2026-05-01 09:53 | 36.15090 | -5.35581 | 21 ft | 18 kts | 269° |
| 2026-05-01 09:54 | 36.15088 | -5.35739 | 18 ft | 12 kts | 269° |
| 2026-05-01 09:54 | 36.15068 | -5.35849 | 21 ft | 14 kts | 246° |
| 2026-05-01 09:54 | 36.15071 | -5.35932 | 18 ft | 8 kts | 334° |
| 2026-05-01 09:54 | 36.15093 | -5.35880 | 18 ft | 9 kts | 87° |
| 2026-05-01 09:55 | 36.15096 | -5.35762 | 19 ft | 20 kts | 86° |
| 2026-05-01 09:55 | 36.15099 | -5.35565 | 21 ft | 25 kts | 88° |
| 2026-05-01 09:55 | 36.15107 | -5.35345 | 24 ft | 26 kts | 87° |
| 2026-05-01 09:55 | 36.15117 | -5.35142 | 23 ft | 24 kts | 87° |
| 2026-05-01 09:56 | 36.15124 | -5.34927 | 23 ft | 26 kts | 88° |
| 2026-05-01 09:56 | 36.15130 | -5.34757 | 21 ft | 8 kts | 86° |
| 2026-05-01 09:56 | 36.15146 | -5.34692 | 23 ft | 8 kts | 43° |
| 2026-05-01 09:56 | 36.15193 | -5.34684 | 21 ft | 6 kts | 4° |
| 2026-05-01 09:57 | 36.15224 | -5.34652 | 21 ft | 6 kts | 63° |
| 2026-05-01 09:57 | 36.15231 | -5.34629 | 22 ft | 2 kts | 48° |
| 2026-05-01 09:57 | 36.15259 | -5.34627 | 17 ft | 0 kts | 357° |
| 2026-05-01 09:57 | 36.15275 | -5.34628 | 17 ft | 3 kts | 358° |
| 2026-05-01 09:58 | 36.15294 | -5.34628 | 17 ft | 3 kts | 359° |
| 2026-05-01 09:58 | 36.15304 | -5.34628 | 17 ft | 0 kts | 359° |
| 2026-05-01 09:58 | 36.15305 | -5.34628 | 17 ft | 0 kts | 359° |